Time;durP1;ratioP1;P1;durP2;ratioP2;P2;SDS_P1;SDS_P2;PMS_P1;PMS_P2;Temp;Humidity;BMP_temperature;BMP_pressure;BME280_temperature;BME280_humidity;BME280_pressure;Samples;Min_cycle;Max_cycle;Signal;HPM_P1;HPM_P2
2021/12/01 00:00:48;;;;;;;5.67;1.32;;;;;;;2.10;71.67;95487.13;1712529;83;25770;-82
2021/12/01 00:03:15;;;;;;;3.77;1.32;;;;;;;2.10;71.62;95482.63;1712429;83;27458;-83
2021/12/01 00:05:42;;;;;;;2.12;1.00;;;;;;;2.13;71.53;95494.72;1712394;83;25841;-84
2021/12/01 00:08:09;;;;;;;4.20;1.67;;;;;;;2.16;71.30;95495.64;1712301;83;25691;-83
2021/12/01 00:10:38;;;;;;;4.37;1.57;;;;;;;2.16;71.31;95502.30;1712350;83;26891;-81
2021/12/01 00:13:13;;;;;;;4.80;1.45;;;;;;;2.16;71.27;95507.62;1704479;82;25648;-83
2021/12/01 00:15:42;;;;;;;7.10;1.47;;;;;;;2.15;71.03;95521.95;1703262;82;27433;-82
2021/12/01 00:18:09;;;;;;;4.62;1.20;;;;;;;2.12;71.15;95534.33;1703175;82;26454;-81
2021/12/01 00:20:37;;;;;;;5.12;1.30;;;;;;;2.06;71.43;95531.14;1703216;84;25726;-84
2021/12/01 00:23:04;;;;;;;5.00;1.57;;;;;;;1.99;71.65;95541.80;1703218;84;26572;-80
2021/12/01 00:25:35;;;;;;;4.33;1.40;;;;;;;1.91;71.93;95539.84;1703260;84;25881;-81
2021/12/01 00:27:59;;;;;;;3.22;1.35;;;;;;;1.87;72.28;95537.27;1702771;84;28224;-80
2021/12/01 00:30:27;;;;;;;4.60;1.52;;;;;;;1.84;72.39;95539.00;1703087;83;26537;-81
2021/12/01 00:32:55;;;;;;;4.78;2.15;;;;;;;1.84;72.56;95541.66;1703068;84;25724;-80
2021/12/01 00:35:23;;;;;;;4.75;1.72;;;;;;;1.79;72.41;95549.76;1703220;84;26082;-80
2021/12/01 00:37:50;;;;;;;5.58;1.80;;;;;;;1.76;72.53;95563.45;1703312;84;25835;-81
2021/12/01 00:40:17;;;;;;;5.00;1.80;;;;;;;1.74;72.72;95560.17;1703161;84;27413;-81
2021/12/01 00:42:44;;;;;;;5.40;2.02;;;;;;;1.72;72.83;95575.50;1702818;82;25766;-80
2021/12/01 00:45:16;;;;;;;3.05;1.57;;;;;;;1.71;73.09;95587.16;1703237;84;25229;-81
2021/12/01 00:47:56;;;;;;;5.75;1.87;;;;;;;1.69;73.09;95598.51;1702514;83;26044;-81
2021/12/01 00:50:31;;;;;;;6.97;2.05;;;;;;;1.71;73.27;95609.77;1667030;84;25802;-81
2021/12/01 00:53:02;;;;;;;7.83;2.45;;;;;;;1.68;73.43;95624.00;1702909;84;28455;-80
2021/12/01 00:55:29;;;;;;;6.25;2.52;;;;;;;1.65;73.63;95625.72;1702392;83;26222;-81
2021/12/01 00:57:57;;;;;;;4.83;1.90;;;;;;;1.58;73.88;95642.97;1703101;84;25834;-80
2021/12/01 01:00:27;;;;;;;6.10;2.05;;;;;;;1.51;73.90;95633.34;1703184;82;25993;-84
2021/12/01 01:02:56;;;;;;;6.35;2.52;;;;;;;1.48;74.02;95633.72;1703154;83;25707;-81
2021/12/01 01:05:23;;;;;;;8.85;2.20;;;;;;;1.48;74.04;95641.19;1703130;84;27360;-81
2021/12/01 01:07:50;;;;;;;7.87;2.22;;;;;;;1.50;73.85;95639.67;1703106;82;25285;-82
2021/12/01 01:18:07;;;;;;;7.58;2.15;;;;;;;1.69;73.33;95661.55;1703144;82;28314;-81
2021/12/01 01:20:36;;;;;;;5.10;2.20;;;;;;;1.72;73.11;95657.14;1702924;82;25738;-81
2021/12/01 01:23:02;;;;;;;7.10;1.85;;;;;;;1.77;73.04;95668.84;1703277;82;25751;-81
2021/12/01 01:25:30;;;;;;;6.15;1.60;;;;;;;1.79;72.93;95672.13;1703166;84;25999;-81
2021/12/01 01:27:57;;;;;;;7.45;2.20;;;;;;;1.82;72.77;95676.21;1703086;84;26128;-82
2021/12/01 01:30:23;;;;;;;6.95;2.08;;;;;;;1.85;72.65;95672.34;1703138;83;28062;-80
2021/12/01 01:32:52;;;;;;;6.67;1.87;;;;;;;1.88;72.53;95678.59;1703092;84;25921;-81
2021/12/01 01:35:19;;;;;;;6.90;2.15;;;;;;;1.92;72.32;95691.31;1703126;84;26172;-81
2021/12/01 01:37:45;;;;;;;5.05;1.70;;;;;;;1.95;72.16;95680.76;1662191;84;26033;-80
2021/12/01 01:40:13;;;;;;;6.62;2.00;;;;;;;1.99;72.07;95685.50;1703077;84;25687;-83
2021/12/01 01:42:40;;;;;;;4.92;1.60;;;;;;;2.00;71.90;95686.31;1702802;84;27483;-81
2021/12/01 01:45:08;;;;;;;4.35;2.08;;;;;;;2.01;71.66;95685.30;1703022;84;25286;-81
2021/12/01 01:47:35;;;;;;;5.70;1.92;;;;;;;2.04;71.56;95687.56;1703076;84;25735;-80
2021/12/01 01:52:41;;;;;;;5.92;2.10;;;;;;;2.08;71.12;95688.79;1678211;84;25892;-80
2021/12/01 01:55:08;;;;;;;4.53;1.92;;;;;;;2.10;71.05;95695.56;1703104;84;28043;-81
2021/12/01 01:57:34;;;;;;;9.40;1.57;;;;;;;2.11;70.83;95703.03;1673748;84;25731;-82
2021/12/01 02:00:02;;;;;;;5.53;1.80;;;;;;;2.10;70.69;95712.04;1615117;87;25483;-81
2021/12/01 02:02:29;;;;;;;4.72;1.85;;;;;;;2.12;70.66;95704.17;1613663;87;25951;-80
2021/12/01 02:04:56;;;;;;;6.08;2.27;;;;;;;2.14;70.58;95715.95;1692432;84;25750;-80
2021/12/01 02:07:23;;;;;;;4.75;1.75;;;;;;;2.14;70.54;95717.28;1672548;84;27498;-81
2021/12/01 02:09:50;;;;;;;4.12;1.80;;;;;;;2.14;70.41;95723.94;1641493;85;25777;-80
2021/12/01 02:12:16;;;;;;;3.87;1.55;;;;;;;2.14;70.32;95722.09;1621698;85;25795;-80
2021/12/01 02:14:43;;;;;;;7.97;1.82;;;;;;;2.15;70.34;95736.23;1671280;84;26204;-80
2021/12/01 02:17:09;;;;;;;6.30;1.90;;;;;;;2.15;70.13;95733.56;1638983;86;25892;-80
2021/12/01 02:19:39;;;;;;;3.92;1.70;;;;;;;2.16;70.14;95720.57;1680994;83;27391;-80
2021/12/01 02:22:06;;;;;;;5.10;1.55;;;;;;;2.16;70.07;95725.89;1680845;84;25650;-80
2021/12/01 02:24:32;;;;;;;5.62;1.80;;;;;;;2.18;69.90;95734.48;1680672;84;25264;-81
2021/12/01 02:26:59;;;;;;;7.50;1.55;;;;;;;2.19;69.50;95740.11;1680968;84;25701;-87
2021/12/01 02:29:27;;;;;;;2.37;1.35;;;;;;;2.22;69.47;95745.55;1671547;84;25688;-80
2021/12/01 02:31:55;;;;;;;5.03;1.50;;;;;;;2.22;69.43;95747.70;1638967;86;27393;-81
2021/12/01 02:34:25;;;;;;;4.35;1.40;;;;;;;2.24;69.26;95756.32;1680801;85;25736;-80
2021/12/01 02:36:56;;;;;;;5.72;1.12;;;;;;;2.26;69.19;95754.28;1680957;85;26248;-81
2021/12/01 02:39:23;;;;;;;3.65;1.25;;;;;;;2.28;69.01;95764.23;1680359;84;26054;-80
2021/12/01 02:41:58;;;;;;;2.67;1.20;;;;;;;2.29;68.83;95780.52;1680013;85;26446;-80
2021/12/01 02:44:26;;;;;;;3.47;1.40;;;;;;;2.28;68.71;95762.90;1671520;84;27473;-80
2021/12/01 02:46:52;;;;;;;6.97;1.17;;;;;;;2.32;68.64;95772.11;1630987;86;25752;-80
2021/12/01 02:49:22;;;;;;;6.03;1.45;;;;;;;2.32;68.35;95780.09;1666626;85;25802;-81
2021/12/01 02:51:51;;;;;;;2.80;1.02;;;;;;;2.30;68.23;95788.79;1680257;85;26881;-81
2021/12/01 02:54:18;;;;;;;3.20;1.22;;;;;;;2.29;68.15;95795.16;1673882;85;26147;-80
2021/12/01 02:56:48;;;;;;;4.72;1.27;;;;;;;2.26;68.11;95796.88;1679492;85;27609;-80
2021/12/01 02:59:16;;;;;;;4.45;1.50;;;;;;;2.27;68.00;95799.86;1678855;83;25898;-79
2021/12/01 03:01:43;;;;;;;2.60;1.07;;;;;;;2.27;68.04;95803.85;1655589;85;25690;-83
2021/12/01 03:04:10;;;;;;;3.62;1.20;;;;;;;2.28;67.98;95798.84;1660038;84;25948;-82
2021/12/01 03:06:38;;;;;;;2.98;1.30;;;;;;;2.30;68.01;95823.91;1680797;84;25851;-79
2021/12/01 03:09:08;;;;;;;7.03;1.50;;;;;;;2.31;67.94;95810.41;1680902;85;27367;-79
2021/12/01 03:11:36;;;;;;;3.60;1.52;;;;;;;2.32;67.86;95834.69;1680869;85;25789;-80
2021/12/01 03:14:09;;;;;;;5.55;1.45;;;;;;;2.31;67.72;95821.05;1678299;85;25767;-79
2021/12/01 03:16:36;;;;;;;4.17;1.55;;;;;;;2.30;67.69;95834.05;1677936;85;26173;-79
2021/12/01 03:19:02;;;;;;;3.20;1.65;;;;;;;2.26;67.55;95836.00;1651735;86;25786;-79
2021/12/01 03:21:29;;;;;;;3.62;1.50;;;;;;;2.25;67.69;95843.16;1648975;85;28152;-81
2021/12/01 03:23:55;;;;;;;9.75;3.60;;;;;;;2.25;67.70;95839.17;1651767;86;25939;-79
2021/12/01 03:26:22;;;;;;;6.12;2.17;;;;;;;2.25;67.58;95850.33;1648827;86;25804;-79
2021/12/01 03:28:49;;;;;;;6.72;2.25;;;;;;;2.23;67.47;95866.49;1651764;86;26616;-80
2021/12/01 03:31:15;;;;;;;4.15;1.50;;;;;;;2.23;67.52;95868.33;1649047;85;25747;-79
2021/12/01 03:33:43;;;;;;;4.30;1.50;;;;;;;2.20;67.58;95869.54;1651889;86;26887;-81
2021/12/01 03:36:09;;;;;;;3.87;1.22;;;;;;;2.20;67.59;95860.22;1648822;85;25973;-80
2021/12/01 03:38:36;;;;;;;4.25;1.80;;;;;;;2.19;67.60;95863.91;1651840;86;25847;-80
2021/12/01 03:41:03;;;;;;;2.77;1.45;;;;;;;2.20;67.66;95874.04;1649001;86;26059;-84
2021/12/01 03:43:29;;;;;;;5.78;1.40;;;;;;;2.22;67.66;95883.48;1651829;86;25797;-79
2021/12/01 03:45:56;;;;;;;5.00;1.80;;;;;;;2.17;67.46;95875.28;1648923;86;27354;-79
2021/12/01 03:48:23;;;;;;;2.80;1.35;;;;;;;2.16;67.56;95884.28;1680785;84;25904;-80
2021/12/01 03:50:51;;;;;;;4.45;1.40;;;;;;;2.14;67.44;95893.80;1680855;84;25842;-81
2021/12/01 03:53:21;;;;;;;4.25;1.50;;;;;;;2.11;67.49;95900.83;1650095;85;26034;-80
2021/12/01 03:55:48;;;;;;;3.35;1.32;;;;;;;2.12;67.56;95912.30;1668538;85;25761;-79
2021/12/01 03:58:15;;;;;;;3.80;1.50;;;;;;;2.10;67.60;95920.98;1668672;85;28453;-79
2021/12/01 04:00:43;;;;;;;2.98;1.20;;;;;;;2.09;67.47;95915.34;1668456;85;25775;-79
2021/12/01 04:03:09;;;;;;;5.62;1.42;;;;;;;2.08;67.64;95923.02;1668596;85;25803;-81
2021/12/01 04:05:36;;;;;;;2.27;1.50;;;;;;;2.07;67.69;95927.52;1668643;85;26381;-79
2021/12/01 04:08:06;;;;;;;4.40;1.30;;;;;;;2.07;67.71;95930.68;1668645;85;25776;-79
2021/12/01 04:10:32;;;;;;;2.80;1.25;;;;;;;2.05;67.70;95926.09;1668512;85;28269;-79
2021/12/01 04:12:59;;;;;;;5.15;1.60;;;;;;;2.00;67.88;95925.33;1669013;85;25754;-79
2021/12/01 04:15:25;;;;;;;4.12;1.40;;;;;;;1.98;68.03;95930.52;1672100;84;25688;-82
2021/12/01 04:17:52;;;;;;;2.15;1.22;;;;;;;1.96;68.21;95933.88;1672207;85;26176;-79
2021/12/01 04:20:19;;;;;;;3.25;1.27;;;;;;;1.95;68.30;95936.22;1672374;84;25752;-79
2021/12/01 04:22:48;;;;;;;2.90;1.25;;;;;;;1.95;68.29;95941.55;1672413;85;27426;-79
2021/12/01 04:25:16;;;;;;;5.67;1.85;;;;;;;1.94;68.25;95942.56;1672253;84;26251;-80
2021/12/01 04:27:43;;;;;;;3.42;1.67;;;;;;;1.90;68.22;95942.65;1672157;85;25894;-79
2021/12/01 04:30:13;;;;;;;2.05;1.22;;;;;;;1.88;68.33;95946.83;1672259;84;25930;-79
2021/12/01 04:32:40;;;;;;;3.85;1.65;;;;;;;1.89;68.37;95943.16;1672383;84;25708;-79
2021/12/01 04:35:08;;;;;;;2.80;1.42;;;;;;;1.89;68.46;95948.98;1672418;84;28206;-78
2021/12/01 04:37:35;;;;;;;3.08;1.55;;;;;;;1.88;68.41;95948.67;1672290;84;25802;-79
2021/12/01 04:40:05;;;;;;;1.52;1.32;;;;;;;1.86;68.49;95954.69;1672419;84;25763;-79
2021/12/01 04:42:32;;;;;;;4.12;1.40;;;;;;;1.87;68.43;95961.66;1672331;84;26092;-79
2021/12/01 04:44:59;;;;;;;2.80;1.20;;;;;;;1.85;68.52;95958.36;1672354;85;26474;-78
2021/12/01 04:47:30;;;;;;;3.67;1.70;;;;;;;1.84;68.59;95964.19;1672332;84;27476;-79
2021/12/01 04:49:56;;;;;;;2.92;1.47;;;;;;;1.83;68.65;95961.71;1672022;84;25790;-78
2021/12/01 04:52:23;;;;;;;2.67;1.50;;;;;;;1.80;68.76;95955.78;1672432;85;25653;-78
2021/12/01 04:54:50;;;;;;;4.15;2.00;;;;;;;1.78;68.76;95969.78;1672295;84;26848;-79
2021/12/01 04:57:17;;;;;;;7.12;2.65;;;;;;;1.78;68.89;95961.80;1672353;84;25752;-78
2021/12/01 04:59:45;;;;;;;5.70;2.47;;;;;;;1.78;68.89;95976.44;1672085;84;28235;-78
2021/12/01 05:02:13;;;;;;;4.12;1.75;;;;;;;1.79;68.91;95979.41;1672263;84;25864;-79
2021/12/01 05:04:41;;;;;;;4.95;1.82;;;;;;;1.79;68.98;95988.73;1672455;84;25819;-78
2021/12/01 05:07:10;;;;;;;5.15;2.17;;;;;;;1.76;68.93;95987.77;1672307;85;26226;-79
2021/12/01 05:09:36;;;;;;;6.37;2.00;;;;;;;1.76;68.99;95991.76;1671555;84;25771;-78
2021/12/01 05:12:07;;;;;;;3.92;2.08;;;;;;;1.76;69.02;95989.09;1672027;84;27608;-79
2021/12/01 05:14:39;;;;;;;11.33;6.17;;;;;;;1.77;69.01;95996.06;1663897;85;26121;-79
2021/12/01 05:17:07;;;;;;;4.30;2.25;;;;;;;1.76;68.99;95994.42;1660745;86;25744;-79
2021/12/01 05:19:35;;;;;;;3.83;2.37;;;;;;;1.73;68.95;96005.44;1640402;87;25999;-79
2021/12/01 05:22:03;;;;;;;3.98;1.62;;;;;;;1.70;68.99;96000.48;1660047;86;25760;-78
2021/12/01 05:24:29;;;;;;;9.23;6.45;;;;;;;1.67;69.00;96000.89;1660053;85;28202;-79
2021/12/01 05:26:56;;;;;;;7.12;2.98;;;;;;;1.66;69.11;96015.20;1659955;84;25902;-78
2021/12/01 05:29:24;;;;;;;6.55;2.62;;;;;;;1.68;69.15;96007.86;1659967;85;25884;-79
2021/12/01 05:31:55;;;;;;;8.75;3.95;;;;;;;1.71;69.18;96005.30;1660044;85;26192;-79
2021/12/01 05:34:22;;;;;;;7.08;3.60;;;;;;;1.73;69.23;96012.09;1660120;85;25788;-79
2021/12/01 05:36:49;;;;;;;4.80;2.35;;;;;;;1.74;69.22;96005.75;1660131;85;28028;-79
2021/12/01 05:39:16;;;;;;;6.30;2.90;;;;;;;1.73;69.14;96012.09;1660006;85;25732;-79
2021/12/01 05:41:44;;;;;;;4.53;1.98;;;;;;;1.74;69.17;96019.56;1659926;85;25860;-78
2021/12/01 05:44:11;;;;;;;12.40;5.37;;;;;;;1.72;69.12;96013.60;1659971;85;25998;-79
2021/12/01 05:46:37;;;;;;;5.85;4.58;;;;;;;1.72;69.19;96009.61;1660090;84;25717;-79
2021/12/01 05:49:05;;;;;;;12.23;6.80;;;;;;;1.74;69.16;96009.74;1659986;85;27594;-78
2021/12/01 05:51:31;;;;;;;5.53;3.22;;;;;;;1.74;69.14;96008.41;1659912;85;25781;-78
2021/12/01 05:53:58;;;;;;;5.87;2.33;;;;;;;1.76;69.20;96002.41;1659910;85;25736;-79
2021/12/01 05:56:24;;;;;;;5.10;3.35;;;;;;;1.78;69.11;96010.20;1659963;85;26056;-79
2021/12/01 05:58:51;;;;;;;10.43;5.17;;;;;;;1.77;69.08;96006.71;1660056;85;25908;-78
2021/12/01 06:01:17;;;;;;;29.60;18.87;;;;;;;1.75;69.00;96005.25;1660081;86;27303;-79
2021/12/01 06:03:44;;;;;;;22.40;10.93;;;;;;;1.75;69.20;96002.59;1659679;85;25348;-78
2021/12/01 06:06:11;;;;;;;8.50;4.55;;;;;;;1.77;69.27;96006.71;1659974;85;25709;-79
2021/12/01 06:08:38;;;;;;;20.85;10.15;;;;;;;1.82;69.11;95998.14;1659803;85;26065;-79
2021/12/01 06:11:05;;;;;;;39.90;19.27;;;;;;;1.81;68.95;96005.30;1659783;85;25884;-78
2021/12/01 06:13:31;;;;;;;33.18;16.10;;;;;;;1.81;68.96;95994.66;1662449;85;27386;-78
2021/12/01 06:15:58;;;;;;;37.90;15.75;;;;;;;1.77;68.99;96001.39;1677606;85;26052;-78
2021/12/01 06:18:25;;;;;;;12.43;4.55;;;;;;;1.76;68.99;95991.76;1677944;84;25814;-79
2021/12/01 06:20:51;;;;;;;6.22;2.55;;;;;;;1.79;68.95;95990.05;1677940;84;26854;-79
2021/12/01 06:23:18;;;;;;;14.23;7.30;;;;;;;1.79;68.79;95995.88;1677953;85;25677;-78
2021/12/01 06:25:44;;;;;;;10.68;5.42;;;;;;;1.79;68.84;95996.70;1677875;85;28078;-78
2021/12/01 06:28:11;;;;;;;6.42;3.40;;;;;;;1.82;68.86;95995.48;1677948;85;26421;-78
2021/12/01 06:30:38;;;;;;;34.15;13.20;;;;;;;1.84;68.86;95994.78;1677894;84;26470;-78
2021/12/01 06:33:06;;;;;;;10.80;3.70;;;;;;;1.87;68.92;95992.25;1677718;84;26062;-79
2021/12/01 06:35:34;;;;;;;19.98;6.55;;;;;;;1.84;68.84;96004.60;1677963;84;25721;-79
2021/12/01 06:38:03;;;;;;;14.05;4.80;;;;;;;1.83;68.90;96004.28;1677921;85;27476;-79
2021/12/01 06:40:30;;;;;;;15.72;6.83;;;;;;;1.87;68.94;96004.23;1677812;85;25925;-78
2021/12/01 06:42:58;;;;;;;11.22;4.50;;;;;;;1.88;68.93;95997.89;1678039;85;25320;-78
2021/12/01 06:45:25;;;;;;;9.55;3.42;;;;;;;1.88;68.88;96009.36;1677912;85;26379;-79
2021/12/01 06:47:52;;;;;;;71.20;26.50;;;;;;;1.90;68.90;96002.52;1677949;85;25687;-79
2021/12/01 06:50:18;;;;;;;16.45;7.58;;;;;;;1.93;68.85;96010.13;1677763;85;27419;-80
2021/12/01 06:52:45;;;;;;;42.13;14.75;;;;;;;1.95;69.04;96011.56;1677507;85;25886;-78
2021/12/01 06:55:12;;;;;;;40.83;14.40;;;;;;;1.98;68.83;96015.17;1678098;85;25779;-78
2021/12/01 06:57:39;;;;;;;22.20;7.90;;;;;;;2.00;68.83;96015.81;1678031;84;26084;-78
2021/12/01 07:00:10;;;;;;;27.80;10.63;;;;;;;2.00;68.66;96016.32;1678007;84;25672;-79
2021/12/01 07:02:38;;;;;;;22.37;6.23;;;;;;;2.03;68.80;96019.94;1678147;84;28195;-78
2021/12/01 07:05:06;;;;;;;13.95;4.87;;;;;;;2.03;68.71;96013.28;1677776;85;25841;-78
2021/12/01 07:07:32;;;;;;;21.65;6.35;;;;;;;2.06;68.73;96019.53;1677991;85;25663;-78
2021/12/01 07:09:59;;;;;;;12.88;6.40;;;;;;;2.11;68.79;96027.27;1677920;85;26101;-79
2021/12/01 07:12:26;;;;;;;11.28;4.83;;;;;;;2.14;68.90;96027.40;1658714;85;25739;-79
2021/12/01 07:14:52;;;;;;;5.97;2.47;;;;;;;2.22;69.02;96019.27;1679357;84;27354;-79
2021/12/01 07:17:20;;;;;;;8.60;2.77;;;;;;;2.20;68.56;96013.30;1680779;84;26158;-79
2021/12/01 07:19:48;;;;;;;7.70;2.60;;;;;;;2.15;68.33;96015.73;1680865;84;25803;-79
2021/12/01 07:22:15;;;;;;;17.67;6.47;;;;;;;2.16;68.31;96019.55;1680798;84;26173;-79
2021/12/01 07:24:43;;;;;;;11.28;4.33;;;;;;;2.17;68.28;96011.84;1681120;84;25708;-78
2021/12/01 07:27:10;;;;;;;12.85;4.58;;;;;;;2.21;68.17;96010.13;1680878;84;28262;-79
2021/12/01 07:29:36;;;;;;;19.15;8.18;;;;;;;2.18;68.13;96011.34;1680690;84;25759;-78
2021/12/01 07:32:05;;;;;;;10.38;4.50;;;;;;;2.17;68.15;96003.06;1680877;84;25718;-79
2021/12/01 07:34:32;;;;;;;13.20;5.12;;;;;;;2.18;68.19;96004.17;1680655;84;25979;-79
2021/12/01 07:36:58;;;;;;;18.35;6.17;;;;;;;2.20;68.18;95998.66;1680815;84;25688;-78
2021/12/01 07:39:25;;;;;;;15.43;5.37;;;;;;;2.18;68.08;95997.52;1680903;84;28616;-79
2021/12/01 07:41:51;;;;;;;9.40;3.15;;;;;;;2.19;68.00;95991.69;1680741;84;25887;-79
2021/12/01 07:44:18;;;;;;;14.23;4.90;;;;;;;2.17;67.88;95995.08;1680914;84;25786;-78
2021/12/01 07:46:46;;;;;;;12.05;5.12;;;;;;;2.20;67.92;95988.01;1680878;84;26054;-78
2021/12/01 07:49:12;;;;;;;8.58;3.85;;;;;;;2.28;68.04;95991.87;1680796;84;25739;-78
2021/12/01 07:51:39;;;;;;;8.30;3.80;;;;;;;2.34;68.16;95987.59;1680598;84;27670;-78
2021/12/01 07:54:05;;;;;;;8.85;3.60;;;;;;;2.38;68.21;95985.70;1680819;84;25767;-78
2021/12/01 07:56:32;;;;;;;9.18;4.62;;;;;;;2.44;68.14;95979.58;1680927;84;25732;-79
2021/12/01 07:58:59;;;;;;;7.45;3.33;;;;;;;2.50;68.18;95976.66;1680959;84;26059;-78
2021/12/01 08:01:25;;;;;;;7.80;3.00;;;;;;;2.54;68.05;95977.37;1680910;84;25694;-78
2021/12/01 08:03:52;;;;;;;6.25;2.83;;;;;;;2.62;67.92;95979.59;1680820;84;27431;-78
2021/12/01 08:06:18;;;;;;;5.87;3.00;;;;;;;2.68;67.82;95979.61;1680832;84;25686;-79
2021/12/01 08:08:45;;;;;;;8.85;4.08;;;;;;;2.79;67.73;95979.56;1680951;84;25759;-79
2021/12/01 08:11:12;;;;;;;13.18;6.42;;;;;;;2.88;67.60;95979.73;1680989;84;25981;-79
2021/12/01 08:13:38;;;;;;;10.00;3.45;;;;;;;2.98;67.48;95968.69;1680951;84;25703;-78
2021/12/01 08:16:06;;;;;;;8.53;3.45;;;;;;;3.07;67.23;95953.65;1680707;84;27511;-78
2021/12/01 08:18:33;;;;;;;8.08;3.35;;;;;;;3.11;67.29;95945.58;1680848;84;25810;-79
2021/12/01 08:20:59;;;;;;;6.55;3.10;;;;;;;3.25;67.32;95936.59;1680961;84;25740;-79
2021/12/01 08:23:26;;;;;;;10.72;5.08;;;;;;;3.36;67.13;95942.36;1681076;84;26224;-79
2021/12/01 08:25:53;;;;;;;8.75;4.83;;;;;;;3.47;67.06;95942.59;1681068;84;25766;-78
2021/12/01 08:28:19;;;;;;;15.45;4.72;;;;;;;3.54;66.86;95944.73;1681026;84;27438;-79
2021/12/01 08:30:46;;;;;;;11.70;4.92;;;;;;;3.60;66.60;95939.94;1680805;84;26450;-79
2021/12/01 08:33:12;;;;;;;8.08;4.95;;;;;;;3.66;66.68;95938.80;1680890;84;25823;-79
2021/12/01 08:35:40;;;;;;;11.85;5.00;;;;;;;3.76;66.57;95937.37;1681077;84;26040;-79
2021/12/01 08:38:06;;;;;;;12.15;5.00;;;;;;;3.84;66.46;95935.85;1681078;84;25690;-79
2021/12/01 08:40:34;;;;;;;12.20;5.03;;;;;;;3.97;66.35;95926.51;1681013;84;27520;-79
2021/12/01 08:43:00;;;;;;;15.43;6.62;;;;;;;4.09;66.10;95924.04;1680958;84;25862;-78
2021/12/01 08:45:27;;;;;;;13.50;6.28;;;;;;;4.14;65.88;95922.06;1680944;84;25742;-79
2021/12/01 08:47:53;;;;;;;15.08;6.03;;;;;;;4.16;65.74;95925.35;1680912;84;26026;-79
2021/12/01 08:50:20;;;;;;;14.10;6.78;;;;;;;4.23;65.77;95920.30;1680779;84;25759;-79
2021/12/01 08:52:48;;;;;;;16.20;7.17;;;;;;;4.31;65.71;95921.95;1681017;84;27453;-79
2021/12/01 08:55:15;;;;;;;10.78;5.35;;;;;;;4.49;65.48;95915.94;1680937;84;25750;-79
2021/12/01 08:57:42;;;;;;;12.07;5.65;;;;;;;4.54;65.05;95918.30;1680981;84;26468;-79
2021/12/01 09:00:10;;;;;;;10.85;5.37;;;;;;;4.71;65.20;95931.48;1680934;84;26008;-79
2021/12/01 09:02:37;;;;;;;14.85;5.55;;;;;;;4.89;64.96;95930.00;1680786;84;25925;-79
2021/12/01 09:05:04;;;;;;;11.22;5.92;;;;;;;5.01;64.59;95924.30;1680894;84;28049;-79
2021/12/01 09:07:31;;;;;;;10.40;4.70;;;;;;;5.15;64.60;95929.89;1681062;84;25794;-80
2021/12/01 09:09:57;;;;;;;10.05;4.83;;;;;;;5.35;64.49;95929.27;1680903;85;26425;-80
2021/12/01 09:12:24;;;;;;;12.65;5.62;;;;;;;5.60;64.03;95923.97;1680994;84;26404;-80
2021/12/01 09:14:52;;;;;;;11.00;4.50;;;;;;;5.78;64.18;95917.36;1680893;84;25799;-79
2021/12/01 09:17:19;;;;;;;8.95;3.90;;;;;;;6.00;63.90;95918.35;1680929;84;28451;-80
2021/12/01 09:19:45;;;;;;;7.15;3.65;;;;;;;6.04;63.33;95908.30;1680934;84;25710;-80
2021/12/01 09:22:12;;;;;;;7.72;3.42;;;;;;;6.01;63.16;95903.41;1680992;84;25723;-80
2021/12/01 09:24:39;;;;;;;7.60;2.60;;;;;;;6.06;63.18;95906.75;1680919;84;26854;-80
2021/12/01 09:27:06;;;;;;;7.87;2.95;;;;;;;6.05;63.00;95901.09;1680978;84;25760;-80
2021/12/01 09:29:33;;;;;;;7.03;3.20;;;;;;;6.11;62.74;95894.34;1680817;84;27412;-79
2021/12/01 09:32:01;;;;;;;10.00;3.52;;;;;;;6.14;62.30;95892.58;1680807;84;25737;-80
2021/12/01 09:34:28;;;;;;;8.28;3.75;;;;;;;6.14;62.55;95890.42;1680887;84;25874;-80
2021/12/01 09:36:56;;;;;;;9.20;3.47;;;;;;;6.05;62.11;95897.07;1681040;84;26823;-80
2021/12/01 09:39:25;;;;;;;9.03;3.50;;;;;;;6.00;61.91;95896.41;1680844;84;25836;-80
2021/12/01 09:41:54;;;;;;;8.83;4.17;;;;;;;5.98;61.91;95893.13;1680718;84;27638;-79
2021/12/01 09:44:21;;;;;;;9.43;4.00;;;;;;;5.94;61.84;95895.93;1680786;84;25378;-79
2021/12/01 09:46:48;;;;;;;12.47;5.42;;;;;;;5.91;61.67;95887.02;1681019;84;26414;-80
2021/12/01 09:49:14;;;;;;;11.83;6.08;;;;;;;5.93;61.74;95886.25;1680971;84;26856;-80
2021/12/01 09:51:41;;;;;;;8.05;4.42;;;;;;;5.89;61.64;95897.12;1680946;84;25884;-80
2021/12/01 09:54:08;;;;;;;9.25;3.80;;;;;;;5.81;61.31;95886.63;1680932;84;26916;-81
2021/12/01 09:56:34;;;;;;;12.37;5.25;;;;;;;5.74;61.31;95881.86;1680805;84;25699;-80
2021/12/01 09:59:01;;;;;;;10.18;4.45;;;;;;;5.72;61.42;95880.73;1680879;85;26096;-79
2021/12/01 10:01:29;;;;;;;7.65;3.90;;;;;;;5.60;61.33;95882.47;1680744;84;26435;-79
2021/12/01 10:03:56;;;;;;;7.90;3.65;;;;;;;5.53;61.39;95880.89;1680817;84;25732;-79
2021/12/01 10:06:25;;;;;;;10.82;4.25;;;;;;;5.54;61.38;95870.49;1680872;84;27386;-79
2021/12/01 10:08:56;;;;;;;9.43;3.47;;;;;;;5.55;61.16;95867.60;1680843;84;25832;-79
2021/12/01 10:11:33;;;;;;;8.33;3.27;;;;;;;5.50;60.97;95862.58;1681253;84;26163;-79
2021/12/01 10:14:13;;;;;;;8.18;3.52;;;;;;;5.49;60.90;95859.09;1680838;84;26032;-79
2021/12/01 10:16:41;;;;;;;8.28;3.27;;;;;;;5.43;60.72;95857.30;1679502;84;25738;-78
2021/12/01 10:19:15;;;;;;;6.62;2.95;;;;;;;5.35;60.26;95857.02;1680934;84;27543;-79
2021/12/01 10:21:50;;;;;;;4.30;2.52;;;;;;;5.24;60.34;95856.89;1680596;84;26308;-78
2021/12/01 10:24:26;;;;;;;7.75;3.25;;;;;;;5.13;60.50;95864.27;1680872;84;25762;-78
2021/12/01 10:26:57;;;;;;;8.55;3.20;;;;;;;5.04;60.38;95859.17;1680917;84;26191;-79
2021/12/01 10:29:29;;;;;;;5.75;3.10;;;;;;;4.98;60.50;95857.34;1681241;84;25736;-79
2021/12/01 10:32:13;;;;;;;4.78;2.45;;;;;;;4.94;60.39;95847.31;1680998;84;27460;-79
2021/12/01 10:34:47;;;;;;;6.20;3.00;;;;;;;4.92;60.45;95843.51;1662876;84;25826;-80
2021/12/01 10:37:33;;;;;;;5.58;3.00;;;;;;;4.92;60.53;95842.17;1680828;84;25767;-80
2021/12/01 10:40:21;;;;;;;9.98;3.95;;;;;;;4.92;60.25;95841.34;1680964;84;25957;-80
2021/12/01 10:43:06;;;;;;;9.50;4.60;;;;;;;4.83;60.30;95835.41;1637983;86;25705;-79
2021/12/01 10:45:45;;;;;;;7.03;3.22;;;;;;;4.84;60.72;95834.89;1637665;86;28074;-79
2021/12/01 10:48:26;;;;;;;14.25;5.58;;;;;;;4.85;60.89;95825.33;1610144;86;25761;-79
2021/12/01 10:50:53;;;;;;;7.40;3.42;;;;;;;4.84;60.52;95821.01;1638984;86;25825;-80
2021/12/01 10:53:23;;;;;;;6.75;3.05;;;;;;;4.70;60.51;95804.77;1638959;86;26002;-80
2021/12/01 10:55:54;;;;;;;6.20;3.08;;;;;;;4.69;60.65;95807.95;1638688;86;25796;-80
2021/12/01 10:58:23;;;;;;;5.10;2.85;;;;;;;4.79;61.01;95806.66;1611806;87;28639;-80
2021/12/01 11:00:54;;;;;;;7.50;3.30;;;;;;;4.81;60.83;95796.58;1611310;88;26965;-79
2021/12/01 11:03:25;;;;;;;8.43;2.22;;;;;;;4.83;61.02;95795.86;1638416;86;25844;-80
2021/12/01 11:05:55;;;;;;;6.75;2.50;;;;;;;4.85;60.98;95785.73;1638679;86;26096;-79
2021/12/01 11:08:31;;;;;;;7.25;2.77;;;;;;;4.88;60.75;95781.31;1638817;86;25844;-79
2021/12/01 11:11:07;;;;;;;8.78;2.67;;;;;;;4.85;60.74;95785.73;1638870;86;27341;-79
2021/12/01 11:13:35;;;;;;;9.13;2.58;;;;;;;4.89;60.85;95779.76;1638772;86;25745;-79
2021/12/01 11:16:06;;;;;;;6.25;2.37;;;;;;;4.89;60.83;95775.75;1658228;85;25880;-80
2021/12/01 11:18:36;;;;;;;8.33;2.90;;;;;;;4.94;60.88;95775.11;1682835;85;26128;-80
2021/12/01 11:21:13;;;;;;;6.92;2.75;;;;;;;4.89;60.76;95770.92;1683165;84;25815;-80
2021/12/01 11:23:49;;;;;;;9.25;2.40;;;;;;;4.89;60.84;95772.25;1683181;85;27486;-80
2021/12/01 11:26:26;;;;;;;9.45;3.30;;;;;;;4.91;60.85;95759.50;1683029;84;25782;-80
2021/12/01 11:28:57;;;;;;;9.38;4.30;;;;;;;4.95;60.96;95762.84;1682923;85;26447;-81
2021/12/01 11:31:34;;;;;;;28.85;11.73;;;;;;;4.97;60.96;95747.92;1682971;85;25993;-80
2021/12/01 11:34:08;;;;;;;9.30;3.87;;;;;;;4.93;60.95;95746.73;1682883;83;25689;-80
2021/12/01 11:36:39;;;;;;;9.88;5.12;;;;;;;4.88;60.94;95749.22;1668917;85;27408;-79
2021/12/01 11:39:11;;;;;;;6.97;3.15;;;;;;;4.82;62.30;95747.43;1653904;86;25844;-79
2021/12/01 11:41:44;;;;;;;5.97;2.85;;;;;;;4.81;61.43;95749.28;1668571;85;26231;-79
2021/12/01 11:44:12;;;;;;;;;;;;;;;4.76;61.43;95750.95;1656638;85;26265;-80
2021/12/01 11:46:38;;;;;;;5.65;3.00;;;;;;;4.65;61.29;95743.92;1683123;84;25797;-79
2021/12/01 11:49:08;;;;;;;11.55;3.25;;;;;;;4.58;61.56;95735.65;1682995;85;27394;-79
2021/12/01 11:51:49;;;;;;;5.53;3.08;;;;;;;4.56;61.64;95727.84;1682605;84;25900;-79
2021/12/01 11:54:19;;;;;;;7.15;3.00;;;;;;;4.53;61.67;95735.46;1682769;85;25735;-79